Time;durP1;ratioP1;P1;durP2;ratioP2;P2;SDS_P1;SDS_P2;PMS_P1;PMS_P2;Temp;Humidity;BMP_temperature;BMP_pressure;BME280_temperature;BME280_humidity;BME280_pressure;Samples;Min_cycle;Max_cycle;Signal;HPM_P1;HPM_P2
2022/10/15 00:00:43;;;;;;;24.70;16.42;;;14.00;94.70;;;;;;5073640;28;20025;-39
2022/10/15 00:03:08;;;;;;;24.67;15.43;;;14.00;94.80;;;;;;5073461;28;20021;-39
2022/10/15 00:05:41;;;;;;;31.00;16.48;;;14.00;94.80;;;;;;5073788;28;20070;-39
2022/10/15 00:08:08;;;;;;;24.75;15.75;;;14.00;94.80;;;;;;5073621;28;20072;-40
2022/10/15 00:10:35;;;;;;;29.45;18.10;;;14.00;94.80;;;;;;5072347;28;20119;-39
2022/10/15 00:13:01;;;;;;;29.85;17.10;;;14.00;94.90;;;;;;5073607;28;20032;-40
2022/10/15 00:15:28;;;;;;;31.27;17.27;;;13.90;94.80;;;;;;5072252;28;20479;-40
2022/10/15 00:17:54;;;;;;;36.33;18.15;;;13.80;94.80;;;;;;5072104;28;20043;-39
2022/10/15 00:20:20;;;;;;;33.28;19.45;;;13.80;94.90;;;;;;5072046;28;20028;-40
2022/10/15 00:22:45;;;;;;;26.33;16.02;;;13.70;94.90;;;;;;5073395;28;20141;-40
2022/10/15 00:25:11;;;;;;;27.98;17.45;;;13.60;94.90;;;;;;5073512;28;20155;-40
2022/10/15 00:27:37;;;;;;;22.80;14.43;;;13.60;95.00;;;;;;5073020;28;20488;-39
2022/10/15 00:30:04;;;;;;;26.90;15.48;;;13.60;95.00;;;;;;5072099;28;20035;-40
2022/10/15 00:32:30;;;;;;;24.48;15.25;;;13.60;95.10;;;;;;5073021;28;20131;-39
2022/10/15 00:34:56;;;;;;;24.33;14.07;;;13.50;95.10;;;;;;5072902;28;20456;-39
2022/10/15 00:37:22;;;;;;;20.92;13.77;;;13.50;95.10;;;;;;5072902;28;20027;-39
2022/10/15 00:39:48;;;;;;;23.88;14.55;;;13.50;95.10;;;;;;5072792;28;20031;-39
2022/10/15 00:42:14;;;;;;;23.80;14.00;;;13.40;95.20;;;;;;5071365;28;20016;-39
2022/10/15 00:44:57;;;;;;;25.35;15.50;;;13.50;95.20;;;;;;5072795;28;20044;-40
2022/10/15 00:47:29;;;;;;;21.85;14.48;;;13.50;95.20;;;;;;5073206;28;20028;-39
2022/10/15 00:50:00;;;;;;;22.85;13.80;;;13.60;95.20;;;;;;5071472;28;20048;-39
2022/10/15 00:52:52;;;;;;;29.25;15.60;;;13.60;95.30;;;;;;5073220;28;20047;-39
2022/10/15 00:55:25;;;;;;;23.33;14.05;;;13.60;95.30;;;;;;5063021;28;20048;-42
2022/10/15 00:57:52;;;;;;;20.35;13.98;;;13.60;95.30;;;;;;5073112;28;20100;-41
2022/10/15 01:00:19;;;;;;;27.20;17.05;;;13.60;95.30;;;;;;5072782;28;20040;-39
2022/10/15 01:02:45;;;;;;;24.35;14.93;;;13.60;95.30;;;;;;5072557;28;20036;-39
2022/10/15 01:05:14;;;;;;;23.95;15.02;;;13.60;95.30;;;;;;5072444;28;20123;-40
2022/10/15 01:07:40;;;;;;;23.10;15.38;;;13.70;95.40;;;;;;5072372;28;20131;-38
2022/10/15 01:10:06;;;;;;;24.13;14.80;;;13.70;95.40;;;;;;5072627;28;20429;-38
2022/10/15 01:12:54;;;;;;;24.55;14.98;;;13.80;95.30;;;;;;5072663;28;20465;-39
2022/10/15 01:15:22;;;;;;;21.98;13.98;;;13.80;95.40;;;;;;5072398;28;20066;-38
2022/10/15 01:18:20;;;;;;;26.92;14.98;;;13.80;95.30;;;;;;5075022;28;20064;-38
2022/10/15 01:21:06;;;;;;;23.80;14.23;;;13.70;95.30;;;;;;5074116;28;20167;-39
2022/10/15 01:23:41;;;;;;;25.33;14.98;;;13.70;95.30;;;;;;5074981;28;20348;-39
2022/10/15 01:26:24;;;;;;;26.67;15.65;;;13.70;95.30;;;;;;5076488;28;20021;-39
2022/10/15 01:29:13;;;;;;;21.23;13.10;;;13.60;95.30;;;;;;5076582;28;20028;-39
2022/10/15 01:31:45;;;;;;;23.48;13.65;;;13.60;95.30;;;;;;5076147;28;20021;-42
2022/10/15 01:34:40;;;;;;;23.92;14.63;;;13.60;95.30;;;;;;5076343;28;20025;-40
2022/10/15 01:37:16;;;;;;;25.50;14.77;;;13.70;95.30;;;;;;5076332;28;20039;-39
2022/10/15 01:39:52;;;;;;;24.33;14.15;;;13.80;95.40;;;;;;5076429;28;20020;-38
2022/10/15 01:42:29;;;;;;;23.25;14.10;;;13.70;95.30;;;;;;5076159;28;20115;-39
2022/10/15 01:45:06;;;;;;;19.23;13.50;;;13.80;95.40;;;;;;5076425;28;20103;-39
2022/10/15 01:47:39;;;;;;;24.92;14.07;;;13.90;95.40;;;;;;5075816;28;20086;-39
2022/10/15 01:50:06;;;;;;;21.13;15.13;;;14.00;95.30;;;;;;5076193;28;20077;-39
2022/10/15 01:52:37;;;;;;;23.77;15.65;;;13.80;95.20;;;;;;5076145;28;20120;-39
2022/10/15 01:55:07;;;;;;;29.33;16.10;;;13.80;95.10;;;;;;5075655;28;20437;-39
2022/10/15 01:57:34;;;;;;;26.58;14.45;;;13.90;95.10;;;;;;5076043;28;20051;-39
2022/10/15 02:00:01;;;;;;;28.52;15.68;;;14.00;95.00;;;;;;5075571;28;20528;-46
2022/10/15 02:02:27;;;;;;;30.02;17.08;;;14.00;94.90;;;;;;5075901;28;20032;-38
2022/10/15 02:04:52;;;;;;;41.85;21.20;;;13.90;94.80;;;;;;5075695;28;20095;-51
2022/10/15 02:07:38;;;;;;;58.72;25.67;;;13.80;94.80;;;;;;5075558;28;20409;-48
2022/10/15 02:10:11;;;;;;;59.35;26.25;;;13.80;94.90;;;;;;5074272;28;20025;-49
2022/10/15 02:12:58;;;;;;;55.85;25.73;;;13.80;94.90;;;;;;5075819;28;20077;-49
2022/10/15 02:15:34;;;;;;;70.57;28.45;;;13.80;94.90;;;;;;5075951;28;20063;-48
2022/10/15 02:18:15;;;;;;;75.90;31.88;;;13.80;94.90;;;;;;5075666;28;20104;-47
2022/10/15 02:20:54;;;;;;;93.20;33.42;;;13.80;95.00;;;;;;5075653;28;20020;-47
2022/10/15 02:23:26;;;;;;;94.13;36.22;;;13.80;95.00;;;;;;5075520;28;20032;-48
2022/10/15 02:25:53;;;;;;;97.60;34.20;;;13.80;95.00;;;;;;5074201;28;20024;-51
2022/10/15 02:28:22;;;;;;;77.78;33.25;;;13.70;95.10;;;;;;5074727;28;20381;-48
2022/10/15 02:30:51;;;;;;;91.57;32.78;;;13.80;95.10;;;;;;5075075;28;20031;-48
2022/10/15 02:33:19;;;;;;;92.80;34.23;;;13.80;95.10;;;;;;5075425;28;20479;-47
2022/10/15 02:35:48;;;;;;;99.05;36.22;;;13.80;95.00;;;;;;5075300;28;20488;-47
2022/10/15 02:38:18;;;;;;;104.28;36.33;;;13.80;95.00;;;;;;5075364;28;20111;-49
2022/10/15 02:40:45;;;;;;;121.50;38.83;;;13.80;95.00;;;;;;5073596;28;20425;-49
2022/10/15 02:43:13;;;;;;;112.00;39.08;;;13.80;94.80;;;;;;5074984;28;20380;-48
2022/10/15 02:45:39;;;;;;;131.35;45.75;;;13.80;94.90;;;;;;5075066;28;20032;-50
2022/10/15 02:48:05;;;;;;;118.13;41.15;;;13.80;94.80;;;;;;5075122;28;20134;-51
2022/10/15 02:50:31;;;;;;;117.95;40.28;;;13.80;94.90;;;;;;5074947;28;20032;-50
2022/10/15 02:52:57;;;;;;;106.25;36.90;;;13.80;94.90;;;;;;5074724;28;20029;-51
2022/10/15 02:55:22;;;;;;;105.28;38.45;;;13.70;94.90;;;;;;5073121;28;20154;-48
2022/10/15 02:57:48;;;;;;;100.18;36.15;;;13.70;94.90;;;;;;5073294;28;20028;-48
2022/10/15 03:00:14;;;;;;;100.18;36.33;;;13.60;94.90;;;;;;5074555;28;20028;-47
2022/10/15 03:02:39;;;;;;;104.22;36.53;;;13.50;95.00;;;;;;5074627;28;20023;-48
2022/10/15 03:05:05;;;;;;;95.82;35.92;;;13.50;95.00;;;;;;5074958;28;20035;-50
2022/10/15 03:07:31;;;;;;;81.15;32.20;;;13.50;95.00;;;;;;5074980;28;20036;-52
2022/10/15 03:09:57;;;;;;;99.55;35.75;;;13.50;95.10;;;;;;5074638;28;20043;-50
2022/10/15 03:12:24;;;;;;;96.13;32.47;;;13.60;95.10;;;;;;5074373;28;20017;-50
2022/10/15 03:14:51;;;;;;;96.07;35.50;;;13.40;95.10;;;;;;5074393;28;20096;-48
2022/10/15 03:17:16;;;;;;;92.68;34.97;;;13.40;95.10;;;;;;5073914;28;20036;-48
2022/10/15 03:19:42;;;;;;;98.32;36.45;;;13.40;95.20;;;;;;5072785;28;20017;-50
2022/10/15 03:22:08;;;;;;;99.53;37.00;;;13.40;95.20;;;;;;5074257;28;20024;-52
2022/10/15 03:24:34;;;;;;;110.40;40.78;;;13.50;95.30;;;;;;5074373;28;20031;-51
2022/10/15 03:26:59;;;;;;;93.43;36.38;;;13.60;95.20;;;;;;5074384;28;20028;-49
2022/10/15 03:29:25;;;;;;;113.13;40.45;;;13.50;95.20;;;;;;5074282;28;20060;-48
2022/10/15 03:31:51;;;;;;;118.25;40.75;;;13.60;95.30;;;;;;5072627;28;20055;-50
2022/10/15 03:34:17;;;;;;;103.97;37.92;;;13.60;95.20;;;;;;5074217;28;20048;-49
2022/10/15 03:36:43;;;;;;;107.53;39.58;;;13.70;95.10;;;;;;5073854;28;20408;-48
2022/10/15 03:39:10;;;;;;;91.50;35.88;;;13.70;95.10;;;;;;5073304;28;20491;-48
2022/10/15 03:41:36;;;;;;;98.82;39.03;;;13.60;95.00;;;;;;5073912;28;20440;-50
2022/10/15 03:44:04;;;;;;;96.85;39.80;;;13.70;95.10;;;;;;5072468;28;20017;-50
2022/10/15 03:46:30;;;;;;;104.75;39.50;;;13.60;95.00;;;;;;5072427;28;20395;-53
2022/10/15 03:48:56;;;;;;;103.07;39.60;;;13.70;95.00;;;;;;5074019;28;20036;-50
2022/10/15 03:51:22;;;;;;;88.20;36.45;;;13.70;95.00;;;;;;5073564;28;20035;-50
2022/10/15 03:53:48;;;;;;;92.40;37.70;;;13.70;94.90;;;;;;5074181;28;20032;-50
2022/10/15 03:56:13;;;;;;;96.30;39.85;;;13.80;94.90;;;;;;5073388;28;20489;-50
2022/10/15 03:58:40;;;;;;;120.13;43.70;;;13.80;94.80;;;;;;5072434;28;20021;-48
2022/10/15 04:01:10;;;;;;;96.18;39.13;;;13.70;94.90;;;;;;5073614;28;20526;-48
2022/10/15 04:03:36;;;;;;;;;;;13.70;94.80;;;;;;5074132;28;20024;-48
2022/10/15 04:06:02;;;;;;;85.63;37.08;;;13.70;94.90;;;;;;5073758;28;19905;-48
2022/10/15 04:08:27;;;;;;;90.63;36.92;;;13.70;94.90;;;;;;5073554;28;20035;-47
2022/10/15 04:10:53;;;;;;;97.20;42.05;;;13.80;94.90;;;;;;5073528;28;20060;-49
2022/10/15 04:13:19;;;;;;;95.75;40.17;;;13.70;94.80;;;;;;5073395;28;20024;-48
2022/10/15 04:15:44;;;;;;;91.20;37.50;;;13.60;94.80;;;;;;5073099;28;20024;-52
2022/10/15 04:18:10;;;;;;;82.60;37.75;;;13.70;94.80;;;;;;5071783;28;20052;-48
2022/10/15 04:20:36;;;;;;;78.82;35.83;;;13.60;94.80;;;;;;5071830;28;20032;-49
2022/10/15 04:23:02;;;;;;;80.40;34.20;;;13.60;94.80;;;;;;5073032;28;20021;-51
2022/10/15 04:25:27;;;;;;;68.97;34.78;;;13.50;94.90;;;;;;5073839;28;20425;-50
2022/10/15 04:27:53;;;;;;;76.22;32.92;;;13.60;95.00;;;;;;5072979;28;20531;-50
2022/10/15 04:30:19;;;;;;;79.00;33.80;;;13.70;94.90;;;;;;5073316;28;20063;-48
2022/10/15 04:32:45;;;;;;;77.93;33.88;;;13.70;94.90;;;;;;5073266;28;20020;-51
2022/10/15 04:35:10;;;;;;;70.13;31.63;;;13.70;94.90;;;;;;5072828;28;20035;-51
2022/10/15 04:37:36;;;;;;;71.38;30.88;;;13.60;94.80;;;;;;5072904;28;20108;-53
2022/10/15 04:40:03;;;;;;;73.93;33.70;;;13.70;94.80;;;;;;5072973;28;20059;-48
2022/10/15 04:42:30;;;;;;;65.20;32.63;;;13.70;94.70;;;;;;5072670;28;20020;-51
2022/10/15 04:44:55;;;;;;;67.93;31.60;;;13.50;94.70;;;;;;5072832;28;20031;-47
2022/10/15 04:47:21;;;;;;;60.25;30.15;;;13.60;94.80;;;;;;5073205;28;20482;-49
2022/10/15 04:49:47;;;;;;;60.42;30.58;;;13.60;94.80;;;;;;5073098;28;20024;-48
2022/10/15 04:52:12;;;;;;;67.57;32.05;;;13.60;94.70;;;;;;5072545;28;20029;-49
2022/10/15 04:54:38;;;;;;;60.85;28.95;;;13.50;94.60;;;;;;5072337;28;20025;-47
2022/10/15 04:57:04;;;;;;;56.90;27.88;;;13.50;94.70;;;;;;5072894;28;20433;-51
2022/10/15 04:59:30;;;;;;;51.22;28.40;;;13.50;94.60;;;;;;5071437;28;20392;-47
2022/10/15 05:01:56;;;;;;;53.30;30.05;;;13.40;94.60;;;;;;5072541;28;20020;-49
2022/10/15 05:04:22;;;;;;;54.45;27.13;;;13.40;94.70;;;;;;5072565;28;20027;-48
2022/10/15 05:06:47;;;;;;;50.55;26.63;;;13.40;94.60;;;;;;5072795;28;20025;-48
2022/10/15 05:09:13;;;;;;;57.08;27.08;;;13.30;94.60;;;;;;5072481;28;20361;-48
2022/10/15 05:11:39;;;;;;;51.80;28.02;;;13.30;94.60;;;;;;5072549;28;20033;-55
2022/10/15 05:14:05;;;;;;;51.97;26.70;;;13.40;94.60;;;;;;5071296;28;20032;-49
2022/10/15 05:16:31;;;;;;;50.95;28.25;;;13.30;94.50;;;;;;5072766;28;20028;-50
2022/10/15 05:19:06;;;;;;;43.78;26.33;;;13.30;94.50;;;;;;5072645;28;20028;-48
2022/10/15 05:21:34;;;;;;;49.33;26.80;;;13.30;94.60;;;;;;5072307;28;20384;-49
2022/10/15 05:24:00;;;;;;;53.42;28.13;;;13.30;94.50;;;;;;5073152;28;20020;-48
2022/10/15 05:26:27;;;;;;;43.55;24.17;;;13.30;94.50;;;;;;5072902;28;20036;-49
2022/10/15 05:28:58;;;;;;;50.22;28.65;;;13.30;94.60;;;;;;5073232;28;20048;-48
2022/10/15 05:31:26;;;;;;;45.38;25.38;;;13.30;94.50;;;;;;5073075;28;20024;-49
2022/10/15 05:33:53;;;;;;;50.22;26.27;;;13.30;94.50;;;;;;5073124;28;20056;-50
2022/10/15 05:36:24;;;;;;;60.15;27.58;;;13.30;94.50;;;;;;5072856;28;20541;-52
2022/10/15 05:39:02;;;;;;;46.53;24.52;;;13.30;94.40;;;;;;5072978;28;20016;-50
2022/10/15 05:41:29;;;;;;;47.45;24.90;;;13.30;94.40;;;;;;5073244;28;20024;-48
2022/10/15 16:55:31;;;;;;;1.48;1.30;;;16.00;89.40;;;;;;5110314;27;20444;-40
2022/10/15 16:57:57;;;;;;;0.98;0.73;;;16.10;84.70;;;;;;5110439;28;20468;-40
2022/10/15 17:00:22;;;;;;;4.15;0.90;;;16.30;82.00;;;;;;5112005;28;20077;-44
2022/10/15 17:02:48;;;;;;;1.83;0.63;;;16.40;78.00;;;;;;5111364;28;20031;-41
2022/10/15 17:05:14;;;;;;;1.52;1.20;;;16.40;76.60;;;;;;5111875;28;20040;-40
2022/10/15 17:07:39;;;;;;;1.40;0.77;;;16.40;75.50;;;;;;5110549;28;20034;-40
2022/10/15 17:10:05;;;;;;;1.67;0.95;;;16.30;75.80;;;;;;5110957;28;20034;-40
2022/10/15 17:12:31;;;;;;;4.07;1.80;;;16.30;76.80;;;;;;5111158;28;20499;-40
2022/10/15 17:14:56;;;;;;;1.30;0.95;;;16.20;77.10;;;;;;5111377;28;20052;-41
2022/10/15 17:17:22;;;;;;;1.25;0.70;;;16.20;77.00;;;;;;5111472;28;20024;-40
2022/10/15 17:19:48;;;;;;;2.17;0.93;;;16.10;77.70;;;;;;5111334;28;20038;-39
2022/10/15 17:22:13;;;;;;;1.00;0.80;;;16.10;77.90;;;;;;5111622;28;20051;-39
2022/10/15 17:24:39;;;;;;;1.13;0.95;;;16.00;78.50;;;;;;5111617;28;20024;-39
2022/10/15 17:27:05;;;;;;;1.77;1.33;;;16.00;77.70;;;;;;5109975;28;20475;-41
2022/10/15 17:29:30;;;;;;;1.83;0.80;;;16.00;77.80;;;;;;5111519;28;20464;-40
2022/10/15 17:31:56;;;;;;;3.35;0.80;;;16.00;78.60;;;;;;5110367;28;20024;-41
2022/10/15 17:34:22;;;;;;;1.20;1.05;;;15.90;79.80;;;;;;5111245;28;20379;-40
2022/10/15 17:36:48;;;;;;;2.63;1.20;;;15.80;80.00;;;;;;5109911;28;20081;-40
2022/10/15 17:39:16;;;;;;;2.38;1.60;;;15.80;80.00;;;;;;5111682;28;20055;-40
2022/10/15 17:41:42;;;;;;;4.32;1.35;;;15.80;80.30;;;;;;5111013;28;20099;-47
2022/10/15 17:44:10;;;;;;;1.42;1.20;;;15.80;80.60;;;;;;5110732;28;20036;-40
2022/10/15 17:46:36;;;;;;;1.98;1.67;;;15.80;80.40;;;;;;5110344;28;20035;-41
2022/10/15 17:49:02;;;;;;;2.95;1.48;;;15.80;81.00;;;;;;5109706;28;20028;-41
2022/10/15 17:51:29;;;;;;;1.45;1.13;;;15.70;79.80;;;;;;5110005;28;20016;-40
2022/10/15 17:53:56;;;;;;;2.05;1.60;;;15.90;79.30;;;;;;5108829;28;20036;-40
2022/10/15 17:56:25;;;;;;;1.90;1.48;;;15.80;79.80;;;;;;5109917;28;20020;-39
2022/10/15 17:58:52;;;;;;;3.90;1.65;;;15.80;78.20;;;;;;5110378;28;20027;-39
2022/10/15 18:01:23;;;;;;;3.13;1.88;;;15.80;78.60;;;;;;5074025;28;20445;-42
2022/10/15 18:03:49;;;;;;;7.40;1.42;;;15.70;77.30;;;;;;5109588;28;20016;-40
2022/10/15 18:06:19;;;;;;;1.73;1.40;;;15.70;75.00;;;;;;5099659;28;20089;-40
2022/10/15 18:08:45;;;;;;;2.83;1.48;;;15.60;75.60;;;;;;5096508;28;20024;-40
2022/10/15 18:11:14;;;;;;;2.78;1.80;;;15.50;75.80;;;;;;5095982;28;20495;-40
2022/10/15 18:13:40;;;;;;;2.35;2.00;;;15.30;76.60;;;;;;5077539;28;20032;-40
2022/10/15 18:16:06;;;;;;;3.58;1.77;;;15.30;76.80;;;;;;5095577;28;20482;-41
2022/10/15 18:18:31;;;;;;;2.75;1.77;;;15.30;76.50;;;;;;5094033;28;20090;-40
2022/10/15 18:20:58;;;;;;;6.72;2.90;;;15.30;76.30;;;;;;5096220;28;20062;-40
2022/10/15 18:23:28;;;;;;;4.63;1.90;;;15.10;76.50;;;;;;5095925;28;20055;-41
2022/10/15 18:26:02;;;;;;;1.83;1.50;;;15.00;77.30;;;;;;5095847;28;20038;-39
2022/10/15 18:28:27;;;;;;;5.22;2.55;;;14.80;77.90;;;;;;5095702;28;20040;-39
2022/10/15 18:30:53;;;;;;;4.80;2.65;;;14.80;78.20;;;;;;5095577;28;20353;-40
2022/10/15 18:33:19;;;;;;;7.00;2.85;;;14.60;78.70;;;;;;5095176;28;20035;-39
2022/10/15 18:35:45;;;;;;;3.10;2.13;;;14.60;78.80;;;;;;5095264;28;20024;-39
2022/10/15 18:38:10;;;;;;;3.22;2.35;;;14.60;79.10;;;;;;5095212;28;20157;-39
2022/10/15 18:40:37;;;;;;;3.33;2.20;;;14.50;79.50;;;;;;5094913;28;20027;-40
2022/10/15 18:43:03;;;;;;;3.47;2.85;;;14.40;80.40;;;;;;5095153;28;20036;-40
2022/10/15 18:45:30;;;;;;;7.28;4.15;;;14.30;80.80;;;;;;5094863;28;20020;-39
2022/10/15 18:47:56;;;;;;;8.30;3.15;;;14.20;81.50;;;;;;5095156;28;20361;-41
2022/10/15 18:50:22;;;;;;;4.72;3.20;;;14.10;82.10;;;;;;5095410;28;20042;-39
2022/10/15 18:52:47;;;;;;;8.98;3.75;;;14.10;83.00;;;;;;5093659;28;20032;-40
2022/10/15 18:55:13;;;;;;;3.25;2.00;;;14.00;83.50;;;;;;5094812;28;20044;-39
2022/10/15 18:57:39;;;;;;;6.18;2.80;;;13.90;83.90;;;;;;5094943;28;20042;-40
2022/10/15 19:00:06;;;;;;;2.88;2.28;;;13.80;84.30;;;;;;5095045;28;20432;-40
2022/10/15 19:02:31;;;;;;;7.40;3.17;;;13.80;84.60;;;;;;5093524;28;20035;-40
2022/10/15 19:04:57;;;;;;;6.43;3.95;;;13.70;84.80;;;;;;5094915;28;20024;-40
2022/10/15 19:07:24;;;;;;;7.05;4.20;;;13.70;85.30;;;;;;5094850;28;20050;-40
2022/10/15 19:09:50;;;;;;;5.30;3.72;;;13.60;85.70;;;;;;5094988;28;20024;-38
2022/10/15 19:12:15;;;;;;;4.32;3.38;;;13.50;86.00;;;;;;5094047;28;20110;-39
2022/10/15 19:14:43;;;;;;;8.80;4.63;;;13.50;86.40;;;;;;5094727;28;20032;-39
2022/10/15 19:17:09;;;;;;;8.93;5.00;;;13.50;86.80;;;;;;5092459;28;20028;-41
2022/10/15 19:19:35;;;;;;;7.03;4.82;;;13.40;87.20;;;;;;5094583;28;20024;-39
2022/10/15 19:22:00;;;;;;;18.50;5.53;;;13.40;87.40;;;;;;5094244;28;20093;-39
2022/10/15 19:24:26;;;;;;;6.68;4.47;;;13.40;87.70;;;;;;5094039;28;20024;-40
2022/10/15 19:26:52;;;;;;;8.10;4.60;;;13.40;88.00;;;;;;5094977;28;20032;-39
2022/10/15 19:29:18;;;;;;;12.82;5.13;;;13.30;88.20;;;;;;5094891;28;20380;-40
2022/10/15 19:31:46;;;;;;;9.55;5.35;;;13.40;88.50;;;;;;5094553;28;20046;-47
2022/10/15 19:34:12;;;;;;;6.55;4.43;;;13.30;88.80;;;;;;5094054;28;20418;-39
2022/10/15 19:36:41;;;;;;;7.70;5.43;;;13.30;89.00;;;;;;5094863;28;20016;-40
2022/10/15 19:39:10;;;;;;;11.05;5.65;;;13.30;89.30;;;;;;5094007;28;20024;-39
2022/10/15 19:41:40;;;;;;;10.23;6.90;;;13.30;89.50;;;;;;5094440;28;20020;-40
2022/10/15 19:44:07;;;;;;;10.68;6.50;;;13.30;89.70;;;;;;5094000;28;20028;-40
2022/10/15 19:46:34;;;;;;;12.63;6.88;;;13.30;89.80;;;;;;5093660;28;20103;-41
2022/10/15 19:49:00;;;;;;;6.95;4.93;;;13.30;90.00;;;;;;5093998;28;20043;-39
2022/10/15 19:51:25;;;;;;;9.95;5.55;;;13.30;90.10;;;;;;5093952;28;20020;-39
2022/10/15 19:53:53;;;;;;;9.95;6.82;;;13.30;90.10;;;;;;5094436;28;20063;-39
2022/10/15 19:56:19;;;;;;;12.77;8.40;;;13.30;90.30;;;;;;5092757;28;20058;-39
2022/10/15 19:58:45;;;;;;;10.95;5.90;;;13.30;90.50;;;;;;5093888;28;20044;-46
2022/10/15 20:01:11;;;;;;;8.52;6.00;;;13.30;90.70;;;;;;5094518;28;20471;-40
2022/10/15 20:03:37;;;;;;;10.20;6.15;;;13.30;90.80;;;;;;5093817;28;20058;-41
2022/10/15 20:06:06;;;;;;;9.38;5.55;;;13.30;90.90;;;;;;5092959;28;20034;-39
2022/10/15 20:08:32;;;;;;;12.98;6.13;;;13.40;91.00;;;;;;5092436;28;20526;-39
2022/10/15 20:10:57;;;;;;;12.95;5.85;;;13.30;90.90;;;;;;5093618;28;20052;-40
2022/10/15 20:13:26;;;;;;;13.40;5.78;;;13.30;91.00;;;;;;5092346;28;20028;-40
2022/10/15 20:15:53;;;;;;;9.38;5.90;;;13.30;91.10;;;;;;5092320;28;20341;-40
2022/10/15 20:18:20;;;;;;;12.57;7.82;;;13.40;91.40;;;;;;5093630;28;20036;-40
2022/10/15 20:20:47;;;;;;;12.60;7.35;;;13.40;91.40;;;;;;5093608;28;20043;-39
2022/10/15 20:23:14;;;;;;;13.75;7.60;;;13.50;91.50;;;;;;5093864;28;20023;-39
2022/10/15 20:25:41;;;;;;;11.68;7.43;;;13.40;91.40;;;;;;5093270;28;20016;-39
2022/10/15 20:28:09;;;;;;;13.13;7.50;;;13.40;91.50;;;;;;5092988;28;20020;-39
2022/10/15 20:30:36;;;;;;;10.18;4.80;;;13.50;91.70;;;;;;5093083;28;20031;-39
2022/10/15 20:33:02;;;;;;;6.43;4.50;;;13.80;91.70;;;;;;5092895;28;20103;-39
2022/10/15 20:35:28;;;;;;;9.35;5.28;;;13.80;91.60;;;;;;5093115;28;20115;-39
2022/10/15 20:37:53;;;;;;;8.27;5.03;;;13.80;91.70;;;;;;5091727;28;20016;-40
2022/10/15 20:40:19;;;;;;;9.27;4.53;;;14.00;91.60;;;;;;5093169;28;20527;-40
2022/10/15 20:42:44;;;;;;;5.50;4.47;;;14.10;91.50;;;;;;5093044;28;20021;-39
2022/10/15 20:45:13;;;;;;;9.25;5.10;;;14.10;91.20;;;;;;5093287;28;20460;-39
2022/10/15 20:47:42;;;;;;;11.05;4.03;;;14.10;91.00;;;;;;5092891;28;20380;-39
2022/10/15 20:50:12;;;;;;;9.32;3.45;;;14.20;91.20;;;;;;5092996;28;20025;-39
2022/10/15 20:52:40;;;;;;;9.18;5.38;;;14.10;91.00;;;;;;5091632;28;20073;-40
2022/10/15 20:55:06;;;;;;;9.38;3.65;;;14.10;91.00;;;;;;5091511;28;20048;-41
2022/10/15 20:57:32;;;;;;;6.63;3.92;;;14.20;91.10;;;;;;5092784;28;20387;-39
2022/10/15 20:59:58;;;;;;;10.88;4.32;;;14.20;90.90;;;;;;5091538;28;20020;-39
2022/10/15 21:02:23;;;;;;;5.25;3.67;;;14.10;91.00;;;;;;5091458;28;20024;-39
2022/10/15 21:04:51;;;;;;;5.25;3.47;;;14.10;91.00;;;;;;5092853;28;20071;-39
2022/10/15 21:07:17;;;;;;;12.65;3.30;;;14.20;91.00;;;;;;5093181;28;20016;-39
2022/10/15 21:09:43;;;;;;;7.20;3.40;;;14.20;91.10;;;;;;5092755;28;20042;-40
2022/10/15 21:12:09;;;;;;;6.55;4.10;;;14.20;90.90;;;;;;5092973;28;20563;-40
2022/10/15 21:14:35;;;;;;;7.78;3.33;;;14.20;90.70;;;;;;5092495;28;20105;-40
2022/10/15 21:17:01;;;;;;;7.68;3.97;;;14.30;90.80;;;;;;5092590;28;20027;-47
2022/10/15 21:19:27;;;;;;;5.88;3.35;;;14.20;90.70;;;;;;5092570;28;20384;-39
2022/10/15 21:21:53;;;;;;;7.75;3.15;;;14.30;91.00;;;;;;5092497;28;20028;-41
2022/10/15 21:24:18;;;;;;;5.47;3.03;;;14.30;90.70;;;;;;5093027;28;20059;-39
2022/10/15 21:26:44;;;;;;;5.60;3.53;;;14.20;90.90;;;;;;5092870;28;20028;-39
2022/10/15 21:29:14;;;;;;;9.82;4.82;;;14.20;91.00;;;;;;5092623;28;20051;-39
2022/10/15 21:31:40;;;;;;;13.82;6.07;;;14.20;91.00;;;;;;5092947;28;20035;-40
2022/10/15 21:34:06;;;;;;;7.25;3.65;;;14.20;91.10;;;;;;5092581;28;20480;-39
2022/10/15 21:36:31;;;;;;;6.10;3.58;;;14.20;91.20;;;;;;5092639;28;20107;-39
2022/10/15 21:39:03;;;;;;;6.57;3.08;;;14.10;91.30;;;;;;5092382;28;20031;-40
2022/10/15 21:41:30;;;;;;;4.72;3.33;;;14.20;91.20;;;;;;5095115;28;20043;-43
2022/10/15 21:43:57;;;;;;;5.10;3.38;;;14.10;91.30;;;;;;5096506;28;20365;-39
2022/10/15 21:46:24;;;;;;;5.28;3.35;;;14.20;91.60;;;;;;5096061;28;20031;-40
2022/10/15 21:48:51;;;;;;;10.70;3.55;;;14.20;91.30;;;;;;5094593;28;20031;-41
2022/10/15 21:51:20;;;;;;;4.65;3.55;;;14.20;91.30;;;;;;5096373;28;20024;-39
2022/10/15 21:53:46;;;;;;;8.23;4.63;;;14.10;91.20;;;;;;5095970;28;20048;-39
2022/10/15 21:56:13;;;;;;;10.95;4.68;;;14.00;91.40;;;;;;5096257;28;20020;-39
2022/10/15 21:58:40;;;;;;;9.43;3.97;;;14.00;91.60;;;;;;5096004;28;20089;-39
2022/10/15 22:01:14;;;;;;;15.40;5.55;;;14.10;91.70;;;;;;5096152;28;20025;-44
2022/10/15 22:03:40;;;;;;;7.03;4.32;;;14.00;91.70;;;;;;5096496;28;20052;-38
2022/10/15 22:06:09;;;;;;;10.50;5.07;;;14.00;91.70;;;;;;5094951;28;20031;-40
2022/10/15 22:08:35;;;;;;;15.48;5.28;;;13.90;91.80;;;;;;5095931;28;20024;-40
2022/10/15 22:11:12;;;;;;;15.15;5.03;;;13.90;91.90;;;;;;5094725;28;20126;-38
2022/10/15 22:13:39;;;;;;;8.57;4.40;;;13.90;91.80;;;;;;5094523;28;20506;-39
2022/10/15 22:16:05;;;;;;;8.32;4.22;;;13.80;91.90;;;;;;5096072;28;20531;-39
2022/10/15 22:18:31;;;;;;;8.50;3.80;;;13.80;92.10;;;;;;5095828;28;20472;-39
2022/10/15 22:20:56;;;;;;;7.07;4.10;;;13.80;92.10;;;;;;5094245;28;20020;-43
2022/10/15 22:23:22;;;;;;;13.18;4.28;;;13.80;92.20;;;;;;5095653;28;20027;-40
2022/10/15 22:25:58;;;;;;;5.80;4.22;;;13.80;92.30;;;;;;5095636;28;20099;-39
2022/10/15 22:28:24;;;;;;;6.65;3.47;;;13.80;92.50;;;;;;5095789;28;20027;-39
2022/10/15 22:30:49;;;;;;;11.23;5.20;;;13.80;92.50;;;;;;5094055;28;20020;-39
2022/10/15 22:33:15;;;;;;;4.82;3.28;;;13.80;92.30;;;;;;5095330;28;20026;-39
2022/10/15 22:35:40;;;;;;;9.82;4.00;;;13.80;92.50;;;;;;5095584;28;20103;-40
2022/10/15 22:38:06;;;;;;;6.82;3.72;;;13.80;92.50;;;;;;5095505;28;20436;-39
2022/10/15 22:40:34;;;;;;;11.48;4.22;;;13.80;92.60;;;;;;5095542;28;20027;-39
2022/10/15 22:43:02;;;;;;;7.05;3.97;;;13.80;92.60;;;;;;5095995;28;20016;-39
2022/10/15 22:45:29;;;;;;;8.15;4.10;;;13.80;92.70;;;;;;5094432;28;20360;-40
2022/10/15 22:47:54;;;;;;;9.70;4.00;;;13.80;92.60;;;;;;5094371;28;20329;-40
2022/10/15 22:50:20;;;;;;;12.05;3.78;;;13.70;92.70;;;;;;5096495;28;20020;-39
2022/10/15 22:52:46;;;;;;;4.93;3.30;;;13.70;92.80;;;;;;5096624;28;20484;-40
2022/10/15 22:55:11;;;;;;;6.80;3.80;;;13.70;92.90;;;;;;5095693;28;20056;-40
2022/10/15 22:57:37;;;;;;;9.68;3.88;;;13.70;93.00;;;;;;5095599;28;20306;-41
2022/10/15 23:00:04;;;;;;;8.57;5.55;;;13.80;93.00;;;;;;5095667;28;20020;-38
2022/10/15 23:02:29;;;;;;;10.95;5.40;;;13.70;93.00;;;;;;5093478;28;20329;-39
2022/10/15 23:04:55;;;;;;;6.43;4.32;;;13.70;93.10;;;;;;5094672;28;20023;-39
2022/10/15 23:07:20;;;;;;;9.30;4.03;;;13.60;93.10;;;;;;5094668;28;20036;-39
2022/10/15 23:09:47;;;;;;;8.00;4.28;;;13.50;93.10;;;;;;5094548;28;20454;-39
2022/10/15 23:12:13;;;;;;;12.15;4.18;;;13.60;93.20;;;;;;5094861;28;20388;-40
2022/10/15 23:14:38;;;;;;;5.90;3.67;;;13.70;93.20;;;;;;5094447;28;20028;-40
2022/10/15 23:17:04;;;;;;;6.07;4.18;;;13.50;93.20;;;;;;5094484;28;20026;-39
2022/10/15 23:19:30;;;;;;;10.40;6.00;;;13.60;93.30;;;;;;5095160;28;20394;-40
2022/10/15 23:21:56;;;;;;;8.63;3.83;;;13.60;93.30;;;;;;5094598;28;20028;-39
2022/10/15 23:24:24;;;;;;;6.70;3.15;;;13.60;93.40;;;;;;5094294;28;20101;-40
2022/10/15 23:26:50;;;;;;;8.30;3.80;;;13.50;93.40;;;;;;5094182;28;20459;-41
2022/10/15 23:29:22;;;;;;;8.35;4.18;;;13.60;93.40;;;;;;5092872;28;20034;-40
2022/10/15 23:31:49;;;;;;;6.80;4.25;;;13.40;93.40;;;;;;5094532;28;20024;-40
2022/10/15 23:34:17;;;;;;;10.65;5.47;;;13.50;93.40;;;;;;5092852;28;20032;-40
2022/10/15 23:36:43;;;;;;;19.75;8.02;;;13.50;93.40;;;;;;5092739;28;20022;-39
2022/10/15 23:39:13;;;;;;;6.95;4.20;;;13.50;93.50;;;;;;5094045;28;20024;-40
2022/10/15 23:41:39;;;;;;;;;;;13.40;93.50;;;;;;5094648;28;20017;-39
2022/10/15 23:44:04;;;;;;;8.88;5.47;;;13.60;93.50;;;;;;5093936;28;20367;-40
2022/10/15 23:46:30;;;;;;;9.80;4.07;;;13.50;93.40;;;;;;5094143;28;20042;-40
2022/10/15 23:48:56;;;;;;;12.63;5.50;;;13.40;93.40;;;;;;5094003;28;20032;-40